Time;durP1;ratioP1;P1;durP2;ratioP2;P2;SDS_P1;SDS_P2;PMS_P1;PMS_P2;Temp;Humidity;BMP_temperature;BMP_pressure;BME280_temperature;BME280_humidity;BME280_pressure;Samples;Min_cycle;Max_cycle;Signal;HPM_P1;HPM_P2
2024/01/09 00:01:32;;;;;;;7.13;6.63;;;;;;;-4.96;62.43;103069.78;4956040;29;20429;-67
2024/01/09 00:03:59;;;;;;;7.20;6.80;;;;;;;-4.98;62.88;103068.91;4955676;29;20997;-67
2024/01/09 00:06:26;;;;;;;7.87;7.37;;;;;;;-5.03;63.08;103068.03;4955607;29;20433;-67
2024/01/09 00:08:52;;;;;;;6.03;5.77;;;;;;;-5.10;63.38;103065.41;4955515;28;20468;-67
2024/01/09 00:11:18;;;;;;;7.33;6.90;;;;;;;-5.02;62.50;103062.81;4955756;29;20445;-67
2024/01/09 00:13:45;;;;;;;6.83;6.47;;;;;;;-5.08;62.56;103066.28;4955526;29;20970;-67
2024/01/09 00:16:11;;;;;;;8.17;7.00;;;;;;;-5.11;62.57;103068.00;4955473;29;20428;-67
2024/01/09 00:18:38;;;;;;;7.27;6.67;;;;;;;-5.12;62.42;103061.91;4955397;28;20457;-67
2024/01/09 00:21:04;;;;;;;8.07;7.60;;;;;;;-5.14;63.12;103060.19;4955413;29;20459;-67
2024/01/09 00:23:32;;;;;;;8.50;6.87;;;;;;;-5.12;62.81;103061.91;4955607;29;20434;-66
2024/01/09 00:25:58;;;;;;;8.03;7.33;;;;;;;-5.10;62.38;103056.72;4955396;29;20429;-66
2024/01/09 00:28:25;;;;;;;7.77;7.07;;;;;;;-5.12;63.41;103056.72;4955241;28;20456;-67
2024/01/09 00:30:52;;;;;;;7.20;6.70;;;;;;;-5.08;62.72;103060.19;4955977;29;20896;-67
2024/01/09 00:33:18;;;;;;;7.27;6.60;;;;;;;-5.15;62.55;103048.00;4955494;29;20482;-67
2024/01/09 00:35:45;;;;;;;7.63;7.00;;;;;;;-5.23;62.94;103053.22;4955488;29;20806;-67
2024/01/09 00:38:12;;;;;;;7.03;6.37;;;;;;;-5.07;62.56;103051.50;4955141;28;20461;-67
2024/01/09 00:40:39;;;;;;;7.47;7.00;;;;;;;-5.18;62.86;103055.84;4955450;29;20464;-67
2024/01/09 00:43:06;;;;;;;7.97;6.93;;;;;;;-5.26;63.50;103052.34;4955672;29;20487;-67
2024/01/09 00:45:33;;;;;;;7.40;6.50;;;;;;;-5.20;62.70;103050.59;4955144;28;20443;-67
2024/01/09 00:48:03;;;;;;;7.53;7.03;;;;;;;-5.17;62.37;103057.53;4955593;28;20452;-67
2024/01/09 00:50:30;;;;;;;6.63;6.13;;;;;;;-5.23;62.46;103049.72;4955140;29;20472;-67
2024/01/09 00:52:57;;;;;;;6.33;6.03;;;;;;;-5.31;63.54;103041.88;4955014;29;20441;-67
2024/01/09 00:55:23;;;;;;;6.80;6.40;;;;;;;-5.30;63.61;103045.34;4955031;29;20504;-67
2024/01/09 00:57:50;;;;;;;6.83;6.47;;;;;;;-5.23;63.02;103041.91;4955103;28;20798;-67
2024/01/09 01:00:17;;;;;;;7.93;7.17;;;;;;;-5.28;63.37;103047.09;4955251;29;20798;-67
2024/01/09 01:02:43;;;;;;;9.07;7.40;;;;;;;-5.29;63.29;103041.88;4955217;29;20852;-67
2024/01/09 01:05:14;;;;;;;6.80;6.47;;;;;;;-5.25;62.88;103036.69;4955177;29;20521;-67
2024/01/09 01:07:41;;;;;;;7.20;6.80;;;;;;;-5.28;63.00;103035.81;4955336;28;20524;-67
2024/01/09 01:10:12;;;;;;;7.03;6.63;;;;;;;-5.28;63.36;103035.81;4954726;29;20472;-67
2024/01/09 01:12:40;;;;;;;7.60;7.10;;;;;;;-5.25;63.40;103038.41;4938477;29;20428;-67
2024/01/09 01:15:07;;;;;;;6.37;6.07;;;;;;;-5.24;63.75;103040.16;4954824;29;20493;-67
2024/01/09 01:17:33;;;;;;;8.07;7.57;;;;;;;-5.29;63.45;103042.75;4954952;28;20457;-67
2024/01/09 01:20:00;;;;;;;8.50;7.43;;;;;;;-5.35;63.46;103037.53;4954795;29;20429;-67
2024/01/09 01:22:26;;;;;;;7.60;7.10;;;;;;;-5.38;64.53;103055.75;4955083;29;20480;-67
2024/01/09 01:24:53;;;;;;;6.87;6.27;;;;;;;-5.30;63.81;103054.03;4954998;29;20457;-67
2024/01/09 01:27:19;;;;;;;7.30;6.90;;;;;;;-5.32;64.04;103050.56;4954686;28;20985;-67
2024/01/09 01:29:46;;;;;;;8.63;7.77;;;;;;;-5.35;63.64;103060.13;4955169;29;20465;-67
2024/01/09 01:32:13;;;;;;;6.90;6.53;;;;;;;-5.30;63.98;103045.34;4955265;29;20437;-67
2024/01/09 01:34:40;;;;;;;7.63;7.13;;;;;;;-5.46;64.92;103051.34;4954971;29;20451;-67
2024/01/09 01:37:06;;;;;;;7.70;6.97;;;;;;;-5.40;64.38;103051.41;4955171;28;20433;-67
2024/01/09 01:39:33;;;;;;;6.73;6.33;;;;;;;-5.33;64.44;103059.25;4954644;29;20501;-67
2024/01/09 01:41:59;;;;;;;6.97;6.47;;;;;;;-5.35;64.87;103045.34;4954878;29;20488;-67
2024/01/09 01:44:28;;;;;;;8.20;7.47;;;;;;;-5.47;64.22;103041.81;4954587;29;20437;-67
2024/01/09 01:46:54;;;;;;;7.63;7.03;;;;;;;-5.42;64.99;103055.72;4955105;29;20437;-67
2024/01/09 01:49:21;;;;;;;7.97;6.70;;;;;;;-5.45;64.86;103056.59;4954504;29;20465;-67
2024/01/09 01:51:50;;;;;;;7.33;6.73;;;;;;;-5.46;65.29;103052.22;4955070;29;20451;-67
2024/01/09 01:54:17;;;;;;;7.60;6.73;;;;;;;-5.48;65.26;103048.78;4955016;29;20439;-67
2024/01/09 01:56:45;;;;;;;7.93;7.30;;;;;;;-5.54;65.37;103044.38;4956753;28;20480;-67
2024/01/09 01:59:16;;;;;;;7.90;6.93;;;;;;;-5.49;65.48;103049.63;4958421;28;20456;-67
2024/01/09 02:01:43;;;;;;;7.50;6.73;;;;;;;-5.54;65.60;103052.22;4957985;29;20425;-67
2024/01/09 02:04:12;;;;;;;7.80;7.30;;;;;;;-5.52;65.40;103050.47;4957876;29;20449;-67
2024/01/09 02:06:39;;;;;;;6.67;6.00;;;;;;;-5.47;65.43;103062.66;4957844;29;20441;-67
2024/01/09 02:09:06;;;;;;;8.83;7.43;;;;;;;-5.54;64.48;103057.41;4957916;28;20456;-66
2024/01/09 02:11:33;;;;;;;7.53;7.03;;;;;;;-5.50;65.28;103047.00;4957727;29;20448;-66
2024/01/09 02:13:59;;;;;;;6.90;6.40;;;;;;;-5.52;65.44;103044.41;4957693;29;20437;-66
2024/01/09 02:16:26;;;;;;;7.83;7.03;;;;;;;-5.56;65.35;103047.88;4958194;29;20433;-66
2024/01/09 02:18:52;;;;;;;7.87;7.07;;;;;;;-5.54;65.38;103047.00;4957542;28;20458;-67
2024/01/09 02:21:19;;;;;;;9.80;6.67;;;;;;;-5.56;65.30;103042.66;4957831;29;20422;-66
2024/01/09 02:23:48;;;;;;;6.70;6.30;;;;;;;-5.51;65.01;103046.13;4957489;29;20500;-66
2024/01/09 02:26:20;;;;;;;7.60;6.30;;;;;;;-5.46;65.69;103046.16;4957719;29;20778;-66
2024/01/09 02:29:10;;;;;;;7.83;7.37;;;;;;;-5.51;65.08;103043.53;4957865;28;20555;-67
2024/01/09 02:31:36;;;;;;;6.90;6.50;;;;;;;-5.62;65.70;103038.28;4957659;29;20448;-67
2024/01/09 02:34:05;;;;;;;7.40;6.90;;;;;;;-5.62;65.85;103040.88;4957554;29;20436;-67
2024/01/09 02:36:33;;;;;;;9.30;8.40;;;;;;;-5.54;66.01;103039.19;4940745;29;20444;-67
2024/01/09 02:39:00;;;;;;;7.70;7.10;;;;;;;-5.58;65.75;103041.75;4957481;28;20453;-67
2024/01/09 02:41:26;;;;;;;7.83;7.23;;;;;;;-5.64;65.39;103040.00;4957463;29;20435;-67
2024/01/09 02:43:53;;;;;;;6.97;6.60;;;;;;;-5.57;65.75;103030.47;4957169;29;20477;-67
2024/01/09 02:46:20;;;;;;;7.60;6.83;;;;;;;-5.58;65.80;103032.22;4957592;29;20480;-67
2024/01/09 02:48:47;;;;;;;7.27;6.87;;;;;;;-5.73;66.13;103026.91;4956988;28;20516;-67
2024/01/09 02:51:13;;;;;;;7.37;6.73;;;;;;;-5.69;65.97;103027.81;4957439;29;20476;-67
2024/01/09 02:53:40;;;;;;;7.00;6.53;;;;;;;-5.70;66.13;103018.25;4956956;29;20476;-67
2024/01/09 02:56:06;;;;;;;7.67;7.07;;;;;;;-5.65;66.96;103017.44;4956947;29;20440;-67
2024/01/09 02:58:33;;;;;;;8.80;8.00;;;;;;;-5.67;66.91;103020.88;4957114;28;20455;-67
2024/01/09 03:01:01;;;;;;;8.17;7.57;;;;;;;-5.68;66.39;103019.13;4956831;29;20500;-67
2024/01/09 03:03:27;;;;;;;8.63;7.40;;;;;;;-5.68;66.85;103027.81;4956817;29;20488;-67
2024/01/09 03:05:54;;;;;;;8.47;7.77;;;;;;;-5.67;67.03;103021.75;4956994;29;20432;-67
2024/01/09 03:08:21;;;;;;;7.90;7.27;;;;;;;-5.73;66.30;103037.34;4956606;28;20783;-67
2024/01/09 03:10:47;;;;;;;8.43;6.93;;;;;;;-5.66;67.43;103036.53;4956758;29;20500;-67
2024/01/09 03:13:13;;;;;;;8.53;7.60;;;;;;;-5.73;67.12;103031.28;4956635;29;20495;-67
2024/01/09 03:15:40;;;;;;;8.17;7.47;;;;;;;-5.65;66.75;103027.84;4956595;29;20437;-67
2024/01/09 03:18:06;;;;;;;7.57;7.27;;;;;;;-5.73;66.55;103021.69;4956960;28;20464;-67
2024/01/09 03:20:33;;;;;;;10.57;8.03;;;;;;;-5.77;66.87;103026.91;4956749;29;20521;-67
2024/01/09 03:23:00;;;;;;;8.57;7.83;;;;;;;-5.77;67.36;103026.91;4956986;29;20520;-66
2024/01/09 03:25:27;;;;;;;8.30;7.63;;;;;;;-5.81;66.75;103023.41;4956911;29;20432;-66
2024/01/09 03:27:55;;;;;;;8.73;7.90;;;;;;;-5.81;67.62;103026.00;4956280;28;20456;-66
2024/01/09 03:30:23;;;;;;;7.00;6.60;;;;;;;-5.81;67.08;103026.00;4957002;29;20820;-67
2024/01/09 03:32:50;;;;;;;7.33;6.63;;;;;;;-5.80;66.97;103024.28;4956265;29;20435;-67
2024/01/09 03:35:16;;;;;;;10.00;8.23;;;;;;;-5.75;66.71;103028.66;4956985;29;20440;-67
2024/01/09 03:37:43;;;;;;;9.23;8.30;;;;;;;-5.82;66.64;103023.41;4956655;28;20580;-67
2024/01/09 03:40:10;;;;;;;7.93;7.27;;;;;;;-5.74;67.08;103019.13;4956092;29;20424;-67
2024/01/09 03:42:37;;;;;;;8.37;7.57;;;;;;;-5.86;67.86;103024.28;4956141;29;20436;-67
2024/01/09 03:45:06;;;;;;;8.37;7.73;;;;;;;-5.83;67.60;103035.56;4956015;29;20928;-67
2024/01/09 03:47:32;;;;;;;13.40;8.67;;;;;;;-5.88;67.49;103033.81;4955952;28;20456;-67
2024/01/09 03:49:59;;;;;;;8.50;7.93;;;;;;;-5.81;67.55;103018.19;4956088;29;20555;-66
2024/01/09 03:52:25;;;;;;;7.97;7.23;;;;;;;-5.76;67.37;103024.31;4955893;29;20484;-66
2024/01/09 03:54:52;;;;;;;8.93;7.80;;;;;;;-5.77;67.01;103019.09;4956082;29;20845;-66
2024/01/09 03:57:18;;;;;;;11.13;8.33;;;;;;;-5.79;66.86;103024.28;4955753;28;20453;-67
2024/01/09 03:59:44;;;;;;;10.93;7.47;;;;;;;-5.80;67.87;103022.53;4956306;29;20436;-66
2024/01/09 04:02:11;;;;;;;7.70;6.87;;;;;;;-5.79;67.47;103026.91;4955759;29;20445;-66
2024/01/09 04:04:38;;;;;;;7.70;7.00;;;;;;;-5.81;68.12;103023.41;4955978;29;20528;-66
2024/01/09 04:07:04;;;;;;;35.90;8.17;;;;;;;-5.85;68.09;103024.25;4956295;28;20528;-67
2024/01/09 04:09:31;;;;;;;8.40;7.73;;;;;;;-5.84;67.81;103028.59;4955398;29;20886;-67
2024/01/09 04:11:57;;;;;;;9.47;8.17;;;;;;;-5.92;68.41;103022.50;4955882;29;20424;-67
2024/01/09 04:14:24;;;;;;;9.17;8.23;;;;;;;-5.85;68.28;103020.78;4955541;29;20864;-67
2024/01/09 04:16:50;;;;;;;10.00;8.77;;;;;;;-5.90;67.88;103020.81;4955437;29;20984;-67
2024/01/09 04:19:17;;;;;;;9.37;8.47;;;;;;;-5.90;68.58;103010.41;4955342;28;20533;-67
2024/01/09 04:21:43;;;;;;;8.30;7.40;;;;;;;-5.86;68.30;103014.72;4955408;29;20440;-67
2024/01/09 04:24:10;;;;;;;9.03;8.23;;;;;;;-5.94;68.17;103016.41;4955387;29;20801;-67
2024/01/09 04:26:36;;;;;;;13.07;8.23;;;;;;;-5.98;68.79;103012.06;4955344;29;20436;-67
2024/01/09 04:29:03;;;;;;;9.37;8.40;;;;;;;-5.95;68.17;103006.00;4955481;28;20456;-67
2024/01/09 04:31:29;;;;;;;8.40;7.80;;;;;;;-5.98;68.63;103013.81;4955469;29;20860;-67
2024/01/09 04:33:55;;;;;;;9.10;8.30;;;;;;;-5.93;68.22;103012.97;4955282;29;20800;-67
2024/01/09 04:36:22;;;;;;;10.30;8.23;;;;;;;-5.95;68.66;103011.22;4955206;29;21032;-67
2024/01/09 04:38:49;;;;;;;9.47;7.90;;;;;;;-6.00;68.60;103016.41;4955398;28;20889;-67
2024/01/09 04:41:17;;;;;;;10.87;8.33;;;;;;;-5.93;68.41;103014.69;4955408;29;20805;-67
2024/01/09 04:43:45;;;;;;;9.83;8.10;;;;;;;-5.97;68.26;103008.59;4955126;29;20468;-67
2024/01/09 04:46:12;;;;;;;9.30;8.03;;;;;;;-6.02;69.17;103008.56;4955657;29;20433;-67
2024/01/09 04:48:39;;;;;;;10.30;9.03;;;;;;;-6.03;68.37;103001.63;4955079;28;20516;-67
2024/01/09 04:51:05;;;;;;;13.83;9.27;;;;;;;-6.09;68.85;103008.53;4955476;29;20515;-67
2024/01/09 04:53:32;;;;;;;9.77;7.90;;;;;;;-6.04;68.72;103006.81;4955012;29;20425;-67
2024/01/09 04:55:58;;;;;;;9.23;8.47;;;;;;;-5.98;68.95;103004.25;4955256;29;20440;-67
2024/01/09 04:58:25;;;;;;;9.50;8.47;;;;;;;-6.03;69.03;103005.97;4955174;28;21038;-67
2024/01/09 05:00:52;;;;;;;11.37;7.97;;;;;;;-6.04;68.47;103001.63;4955180;29;20520;-67
2024/01/09 05:03:18;;;;;;;10.33;8.53;;;;;;;-6.09;69.22;103001.59;4954898;29;20437;-67
2024/01/09 05:05:45;;;;;;;9.63;8.80;;;;;;;-6.12;68.96;102995.50;4955151;29;20447;-67
2024/01/09 05:08:11;;;;;;;9.50;8.63;;;;;;;-6.12;68.76;102998.09;4954812;28;20519;-67
2024/01/09 05:10:38;;;;;;;8.57;7.77;;;;;;;-6.08;68.77;103002.47;4954658;29;20511;-66
2024/01/09 05:13:04;;;;;;;9.13;8.27;;;;;;;-6.00;68.40;102992.97;4955074;29;20987;-66
2024/01/09 05:15:31;;;;;;;12.40;9.47;;;;;;;-5.99;68.46;102986.03;4955133;29;20987;-66
2024/01/09 05:17:57;;;;;;;9.50;8.17;;;;;;;-6.06;69.05;102987.72;4954751;28;20457;-67
2024/01/09 05:20:24;;;;;;;9.50;8.30;;;;;;;-6.05;69.17;102992.06;4954754;29;20491;-67
2024/01/09 05:22:51;;;;;;;13.80;9.17;;;;;;;-6.14;69.13;102990.28;4954789;29;20519;-66
2024/01/09 05:25:17;;;;;;;10.23;8.97;;;;;;;-6.08;69.33;102992.94;4955322;29;20436;-66
2024/01/09 05:27:43;;;;;;;15.67;8.83;;;;;;;-6.12;69.08;102990.28;4955201;28;20532;-67
2024/01/09 05:30:10;;;;;;;10.17;9.17;;;;;;;-6.10;69.91;102988.56;4954687;28;20464;-67
2024/01/09 05:32:37;;;;;;;19.97;9.37;;;;;;;-6.18;69.58;102987.63;4958446;29;20991;-67
2024/01/09 05:35:04;;;;;;;9.83;8.83;;;;;;;-6.16;69.34;102981.59;4958401;29;20435;-67
2024/01/09 05:37:30;;;;;;;14.40;8.53;;;;;;;-6.15;69.72;102985.03;4958204;28;20456;-67
2024/01/09 05:39:57;;;;;;;13.07;8.83;;;;;;;-6.12;69.63;102985.97;4958317;29;20436;-67
2024/01/09 05:42:23;;;;;;;9.17;8.40;;;;;;;-6.15;70.06;102985.91;4958245;29;20437;-67
2024/01/09 05:44:49;;;;;;;11.70;10.20;;;;;;;-6.23;69.93;102992.81;4958503;29;20433;-67
2024/01/09 05:47:16;;;;;;;9.70;8.80;;;;;;;-6.25;70.06;102983.28;4958131;28;20798;-67
2024/01/09 05:49:42;;;;;;;10.00;9.13;;;;;;;-6.16;70.47;102989.41;4941514;29;20435;-66
2024/01/09 05:52:09;;;;;;;10.60;9.50;;;;;;;-6.18;70.23;102991.13;4958283;29;20464;-66
2024/01/09 05:54:35;;;;;;;14.50;9.23;;;;;;;-6.15;69.74;102992.84;4958146;29;20436;-66
2024/01/09 05:57:03;;;;;;;11.63;8.70;;;;;;;-6.27;70.80;103004.06;4958226;28;20436;-67
2024/01/09 05:59:29;;;;;;;10.37;9.40;;;;;;;-6.29;70.80;102991.91;4957964;29;20523;-66
2024/01/09 06:01:56;;;;;;;10.93;9.33;;;;;;;-6.21;70.81;103000.66;4958160;29;20515;-66
2024/01/09 06:04:22;;;;;;;9.93;8.97;;;;;;;-6.23;70.41;102999.75;4958099;29;20491;-66
2024/01/09 06:06:49;;;;;;;10.47;9.37;;;;;;;-6.25;70.62;102996.28;4957916;29;20447;-66
2024/01/09 06:09:15;;;;;;;13.00;9.87;;;;;;;-6.36;71.01;103009.19;4957723;28;20550;-67
2024/01/09 06:11:42;;;;;;;13.60;9.90;;;;;;;-6.32;70.76;102997.13;4958139;29;20527;-67
2024/01/09 06:14:08;;;;;;;11.23;9.93;;;;;;;-6.31;70.84;102994.50;4957658;29;20523;-67
2024/01/09 06:16:35;;;;;;;14.37;10.50;;;;;;;-6.32;70.64;103007.53;4958156;29;20441;-67
2024/01/09 06:19:01;;;;;;;15.83;9.93;;;;;;;-6.27;70.81;103004.06;4958054;28;20975;-67
2024/01/09 06:21:28;;;;;;;11.10;10.00;;;;;;;-6.33;70.36;103008.38;4958092;29;20484;-67
2024/01/09 06:23:54;;;;;;;10.33;9.03;;;;;;;-6.34;70.65;103001.41;4957997;29;20444;-66
2024/01/09 06:26:21;;;;;;;10.10;9.23;;;;;;;-6.42;71.00;103005.69;4957738;29;20455;-66
2024/01/09 06:28:47;;;;;;;13.77;9.23;;;;;;;-6.33;70.46;103006.66;4957332;28;20457;-66
2024/01/09 06:31:13;;;;;;;9.53;8.53;;;;;;;-6.44;71.11;102999.59;4957555;29;20527;-66
2024/01/09 06:33:40;;;;;;;14.77;10.40;;;;;;;-6.45;71.90;103008.28;4957339;29;20846;-66
2024/01/09 06:36:07;;;;;;;14.40;10.83;;;;;;;-6.45;71.63;103010.88;4957272;29;20443;-66
2024/01/09 06:38:33;;;;;;;14.27;9.80;;;;;;;-6.35;71.04;103005.75;4957386;28;20453;-66
2024/01/09 06:40:59;;;;;;;13.10;10.00;;;;;;;-6.39;71.16;103017.00;4957480;29;20774;-66
2024/01/09 06:43:26;;;;;;;16.13;11.07;;;;;;;-6.40;71.29;103009.16;4956075;28;20432;-66
2024/01/09 06:45:53;;;;;;;13.67;9.90;;;;;;;-6.39;71.07;103008.31;4957118;29;20528;-66
2024/01/09 06:48:20;;;;;;;16.87;9.87;;;;;;;-6.41;71.56;103017.84;4957057;28;20511;-67
2024/01/09 06:50:46;;;;;;;16.33;9.57;;;;;;;-6.46;71.23;103020.41;4956969;29;20471;-67
2024/01/09 06:53:13;;;;;;;19.27;10.57;;;;;;;-6.41;71.33;103016.13;4957332;29;20421;-67
2024/01/09 06:55:39;;;;;;;15.43;10.53;;;;;;;-6.38;71.15;103017.88;4957456;29;20802;-67
2024/01/09 06:58:06;;;;;;;15.57;10.47;;;;;;;-6.38;71.87;103012.66;4956963;28;20453;-67
2024/01/09 07:00:34;;;;;;;13.60;10.80;;;;;;;-6.47;71.31;103019.53;4956861;29;20440;-67
2024/01/09 07:03:00;;;;;;;16.93;10.63;;;;;;;-6.42;71.16;103010.91;4956861;29;20522;-67
2024/01/09 07:05:27;;;;;;;19.20;11.53;;;;;;;-6.44;71.53;103017.81;4957099;29;20437;-67
2024/01/09 07:07:53;;;;;;;15.90;10.33;;;;;;;-6.43;71.22;103016.97;4956617;28;21007;-67
2024/01/09 07:10:20;;;;;;;16.33;11.50;;;;;;;-6.44;70.92;103017.81;4956654;29;20913;-67
2024/01/09 07:12:46;;;;;;;10.37;9.37;;;;;;;-6.47;71.40;103027.34;4956673;29;20429;-67
2024/01/09 07:15:14;;;;;;;16.43;10.83;;;;;;;-6.49;71.57;103028.19;4956623;29;20413;-66
2024/01/09 07:17:44;;;;;;;20.37;10.87;;;;;;;-6.49;72.09;103033.38;4956727;28;20460;-67
2024/01/09 07:20:11;;;;;;;14.20;11.13;;;;;;;-6.55;72.04;103033.34;4956815;29;20813;-67
2024/01/09 07:22:38;;;;;;;14.53;11.03;;;;;;;-6.58;72.11;103035.94;4956771;29;20433;-67
2024/01/09 07:25:06;;;;;;;13.13;10.03;;;;;;;-6.49;72.13;103052.47;4956691;29;20436;-67
2024/01/09 07:27:34;;;;;;;17.60;10.27;;;;;;;-6.58;72.13;103061.94;4956863;28;20452;-67
2024/01/09 07:30:01;;;;;;;11.07;9.97;;;;;;;-6.55;72.09;103051.56;4956806;29;20444;-67
2024/01/09 07:32:27;;;;;;;16.50;10.87;;;;;;;-6.49;72.00;103054.19;4956980;29;20530;-67
2024/01/09 07:34:54;;;;;;;21.77;10.83;;;;;;;-6.52;72.81;103052.44;4956389;29;20889;-67
2024/01/09 07:37:22;;;;;;;11.70;10.53;;;;;;;-6.59;72.48;103063.66;4956414;28;20457;-67
2024/01/09 07:39:49;;;;;;;14.20;11.50;;;;;;;-6.59;72.38;103058.47;4956145;29;20523;-66
2024/01/09 07:42:16;;;;;;;19.07;11.20;;;;;;;-6.53;72.03;103061.09;4956358;29;20951;-66
2024/01/09 07:44:42;;;;;;;12.20;10.53;;;;;;;-6.56;72.34;103073.22;4956637;29;20825;-66
2024/01/09 07:47:11;;;;;;;19.47;11.27;;;;;;;-6.55;71.69;103068.03;4956355;28;20932;-67
2024/01/09 07:49:40;;;;;;;14.53;11.37;;;;;;;-6.50;72.15;103065.47;4956584;29;20512;-67
2024/01/09 07:52:09;;;;;;;12.80;10.37;;;;;;;-6.55;71.69;103073.25;4956117;29;20948;-67
2024/01/09 07:54:35;;;;;;;17.77;11.57;;;;;;;-6.51;72.02;103066.34;4956048;28;20433;-67
2024/01/09 07:57:01;;;;;;;15.87;11.07;;;;;;;-6.49;71.72;103069.81;4955770;28;20521;-67
2024/01/09 07:59:28;;;;;;;13.33;10.17;;;;;;;-6.49;71.74;103067.19;4956003;29;20436;-67
2024/01/09 08:01:55;;;;;;;15.40;10.83;;;;;;;-6.47;71.80;103078.50;4955734;29;20436;-67
2024/01/09 08:04:22;;;;;;;21.43;11.77;;;;;;;-6.43;71.12;103069.88;4955763;29;20512;-67
2024/01/09 08:06:50;;;;;;;14.40;10.23;;;;;;;-6.47;71.36;103070.69;4955969;29;20433;-67
2024/01/09 08:09:17;;;;;;;18.27;11.37;;;;;;;-6.52;71.38;103075.00;4955853;28;20468;-67
2024/01/09 08:11:44;;;;;;;11.43;10.13;;;;;;;-6.33;71.22;103068.22;4955889;29;20805;-67
2024/01/09 08:14:12;;;;;;;15.17;10.07;;;;;;;-6.34;71.05;103076.88;4955554;29;20428;-67
2024/01/09 08:16:43;;;;;;;13.37;10.30;;;;;;;-6.36;71.18;103082.06;4955763;29;20437;-67
2024/01/09 08:19:09;;;;;;;13.23;11.30;;;;;;;-6.30;70.79;103083.84;4955418;28;20460;-67
2024/01/09 08:21:36;;;;;;;17.47;11.50;;;;;;;-6.38;70.58;103086.41;4955990;29;20781;-67
2024/01/09 08:24:08;;;;;;;14.63;11.00;;;;;;;-6.26;70.87;103076.09;4955719;29;20608;-67
2024/01/09 08:26:34;;;;;;;16.20;11.47;;;;;;;-6.25;70.22;103082.16;4955301;29;20495;-67
2024/01/09 08:29:02;;;;;;;10.83;9.67;;;;;;;-6.25;70.22;103074.34;4955252;28;20488;-67
2024/01/09 08:31:29;;;;;;;13.53;10.87;;;;;;;-6.18;70.02;103073.53;4955396;29;21019;-67
2024/01/09 08:33:55;;;;;;;17.97;10.77;;;;;;;-6.20;69.69;103073.53;4955312;29;20487;-67
2024/01/09 08:36:22;;;;;;;24.60;10.57;;;;;;;-6.18;69.79;103081.34;4955669;29;20828;-67
2024/01/09 08:38:49;;;;;;;11.90;10.60;;;;;;;-6.09;69.55;103071.00;4955134;28;20452;-67
2024/01/09 08:41:17;;;;;;;11.67;10.20;;;;;;;-6.01;69.18;103066.72;4955164;29;20507;-67
2024/01/09 08:43:44;;;;;;;12.10;10.63;;;;;;;-6.01;69.00;103071.94;4955195;29;20446;-67
2024/01/09 08:46:10;;;;;;;11.90;10.63;;;;;;;-6.06;68.60;103077.09;4955365;29;20432;-67
2024/01/09 08:48:37;;;;;;;16.20;10.57;;;;;;;-5.89;68.20;103072.00;4955307;28;20449;-67
2024/01/09 08:51:04;;;;;;;18.37;11.37;;;;;;;-5.88;68.14;103078.09;4955192;29;20479;-67
2024/01/09 08:53:38;;;;;;;16.03;10.63;;;;;;;-5.79;67.47;103078.13;4955783;29;20837;-67
2024/01/09 08:56:04;;;;;;;19.60;10.93;;;;;;;-5.68;67.56;103076.44;4955309;29;20484;-67
2024/01/09 08:58:31;;;;;;;13.40;10.33;;;;;;;-5.68;67.76;103069.50;4955309;28;20503;-67
2024/01/09 09:00:57;;;;;;;11.07;9.70;;;;;;;-5.59;66.40;103079.97;4954976;29;20507;-67
2024/01/09 09:03:24;;;;;;;11.57;9.97;;;;;;;-5.54;66.97;103074.78;4955236;29;20440;-67
2024/01/09 09:05:50;;;;;;;16.30;11.20;;;;;;;-5.43;66.56;103080.06;4955809;28;20432;-67
2024/01/09 09:08:20;;;;;;;11.90;10.13;;;;;;;-5.44;66.78;103075.72;4959190;28;20939;-67
2024/01/09 09:10:46;;;;;;;13.03;10.10;;;;;;;-5.33;65.96;103076.63;4959192;29;20441;-67
2024/01/09 09:13:13;;;;;;;13.23;9.60;;;;;;;-5.40;66.59;103077.47;4959124;29;20432;-67
2024/01/09 09:15:39;;;;;;;16.20;10.60;;;;;;;-5.31;65.81;103078.38;4959300;29;20500;-67
2024/01/09 09:18:06;;;;;;;13.13;10.40;;;;;;;-5.24;65.34;103079.25;4958991;28;20868;-67
2024/01/09 09:20:32;;;;;;;16.63;10.43;;;;;;;-5.23;64.96;103078.41;4958716;29;20441;-67
2024/01/09 09:22:59;;;;;;;14.13;10.03;;;;;;;-5.24;64.99;103079.25;4958992;29;20528;-67
2024/01/09 09:25:25;;;;;;;10.53;9.33;;;;;;;-5.01;65.52;103080.22;4958607;29;20533;-67
2024/01/09 09:27:52;;;;;;;11.67;9.23;;;;;;;-5.01;64.08;103082.84;4958459;28;20975;-67
2024/01/09 09:30:19;;;;;;;11.20;10.03;;;;;;;-5.05;63.23;103085.44;4958516;29;20438;-67
2024/01/09 09:32:46;;;;;;;12.70;10.00;;;;;;;-5.03;63.35;103078.47;4958457;29;20514;-67
2024/01/09 09:35:13;;;;;;;15.67;9.80;;;;;;;-5.05;62.71;103080.22;4958726;29;20440;-67
2024/01/09 09:37:40;;;;;;;17.13;8.77;;;;;;;-4.93;63.31;103088.06;4958608;28;20452;-68
2024/01/09 09:40:08;;;;;;;12.17;9.40;;;;;;;-4.87;63.15;103081.13;4958607;29;20433;-67
2024/01/09 09:42:36;;;;;;;11.83;9.33;;;;;;;-4.77;63.15;103082.00;4958305;29;20430;-67
2024/01/09 09:45:09;;;;;;;13.20;9.47;;;;;;;-4.72;63.28;103078.56;4958257;29;20429;-67
2024/01/09 09:47:36;;;;;;;11.90;9.40;;;;;;;-4.64;62.12;103069.00;4958888;28;20449;-68
2024/01/09 09:50:04;;;;;;;10.50;9.47;;;;;;;-4.57;62.49;103087.25;4958735;29;20433;-68
2024/01/09 09:52:33;;;;;;;19.23;10.63;;;;;;;-4.57;62.83;103088.13;4958389;29;20815;-68
2024/01/09 09:55:00;;;;;;;13.33;9.23;;;;;;;-4.45;60.83;103087.25;4958427;29;20466;-68
2024/01/09 09:57:27;;;;;;;12.80;10.10;;;;;;;-4.48;61.38;103085.53;4958020;28;20506;-68
2024/01/09 09:59:54;;;;;;;10.27;9.17;;;;;;;-4.41;60.79;103079.44;4958143;29;20443;-68
2024/01/09 10:02:26;;;;;;;16.23;10.50;;;;;;;-4.36;61.38;103089.88;4958103;29;20430;-67
2024/01/09 10:04:56;;;;;;;11.70;7.77;;;;;;;-4.26;60.38;103091.63;4958450;29;20419;-67
2024/01/09 10:07:22;;;;;;;10.97;9.50;;;;;;;-4.28;61.55;103080.31;4958048;28;20807;-68
2024/01/09 10:09:52;;;;;;;19.83;10.77;;;;;;;-4.13;60.71;103080.31;4957790;29;20447;-68
2024/01/09 10:12:22;;;;;;;11.47;9.13;;;;;;;-4.14;59.94;103081.19;4958279;29;20472;-68
2024/01/09 10:15:09;;;;;;;10.70;9.73;;;;;;;-4.03;61.08;103073.34;4958011;29;20420;-68
2024/01/09 10:17:36;;;;;;;12.00;9.63;;;;;;;-3.98;60.62;103085.53;4957761;28;20454;-68
2024/01/09 10:20:04;;;;;;;9.80;8.90;;;;;;;-3.92;60.75;103077.69;4957600;29;20450;-68
2024/01/09 10:22:35;;;;;;;11.03;9.57;;;;;;;-3.78;59.72;103075.91;4957636;29;20424;-68
2024/01/09 10:25:10;;;;;;;12.13;8.73;;;;;;;-3.65;59.43;103071.53;4957564;29;20784;-68
2024/01/09 10:27:38;;;;;;;13.37;9.77;;;;;;;-3.59;59.25;103066.28;4957990;28;20976;-68
2024/01/09 10:30:07;;;;;;;9.80;9.00;;;;;;;-3.59;58.01;103060.19;4957758;29;20439;-68
2024/01/09 10:32:35;;;;;;;9.13;8.23;;;;;;;-3.41;58.05;103060.13;4957438;29;20559;-68
2024/01/09 10:35:07;;;;;;;11.73;9.20;;;;;;;-3.42;57.60;103063.59;4957321;29;20519;-68
2024/01/09 10:37:34;;;;;;;12.57;9.30;;;;;;;-3.20;57.59;103057.41;4957643;28;20464;-68
2024/01/09 10:40:01;;;;;;;10.23;9.33;;;;;;;-3.19;56.65;103059.16;4957179;29;20447;-68
2024/01/09 10:42:30;;;;;;;9.80;8.77;;;;;;;-3.08;55.64;103048.63;4957227;29;20425;-68
2024/01/09 10:44:57;;;;;;;13.53;9.47;;;;;;;-3.10;55.29;103059.13;4957726;29;20451;-68
2024/01/09 10:47:27;;;;;;;9.03;8.13;;;;;;;-3.01;54.47;103048.59;4957309;28;20452;-68
2024/01/09 10:49:54;;;;;;;10.73;8.07;;;;;;;-3.09;55.07;103045.16;4957413;29;20435;-68
2024/01/09 10:52:21;;;;;;;9.80;8.10;;;;;;;-2.99;54.46;103044.22;4957524;29;20511;-68
2024/01/09 10:54:47;;;;;;;9.63;8.80;;;;;;;-3.02;54.24;103046.00;4957092;29;20492;-68
2024/01/09 10:57:15;;;;;;;10.53;8.50;;;;;;;-2.98;53.28;103038.13;4956934;28;20442;-68
2024/01/09 10:59:43;;;;;;;9.63;8.50;;;;;;;-2.91;53.45;103042.44;4957210;29;20439;-68
2024/01/09 11:02:17;;;;;;;9.83;8.67;;;;;;;-2.93;53.78;103038.94;4956928;29;20460;-68
2024/01/09 11:04:44;;;;;;;9.07;8.13;;;;;;;-2.89;53.67;103024.13;4956930;29;20437;-68
2024/01/09 11:07:14;;;;;;;12.40;9.83;;;;;;;-2.85;53.63;103024.09;4956751;28;20940;-68
2024/01/09 11:09:50;;;;;;;8.97;8.17;;;;;;;-2.88;52.94;103016.22;4956941;29;20443;-68
2024/01/09 11:12:25;;;;;;;10.20;8.63;;;;;;;-2.79;53.22;103013.56;4957222;29;20851;-68
2024/01/09 11:14:57;;;;;;;8.93;8.13;;;;;;;-2.69;53.23;103016.09;4956974;29;20197;-68
2024/01/09 11:17:25;;;;;;;11.37;8.53;;;;;;;-2.60;51.74;103005.56;4956876;28;20476;-68
2024/01/09 11:19:52;;;;;;;9.90;9.07;;;;;;;-2.63;51.31;103003.00;4956543;29;20433;-68